createdAt,value
2023-05-17T00:03:57.968Z,3.10
2023-05-17T00:08:22.948Z,3.10
2023-05-17T00:12:45.180Z,3.20
2023-05-17T00:17:07.190Z,3.30
2023-05-17T00:21:29.503Z,3.20
2023-05-17T00:25:51.674Z,3.20
2023-05-17T00:30:14.776Z,3.10
2023-05-17T00:34:37.203Z,3.00
2023-05-17T00:38:59.404Z,2.90
2023-05-17T00:43:21.913Z,2.80
2023-05-17T00:47:44.132Z,2.80
2023-05-17T00:52:06.739Z,2.70
2023-05-17T00:56:28.967Z,2.60
2023-05-17T01:00:51.788Z,2.60
2023-05-17T01:05:15.237Z,2.50
2023-05-17T01:09:38.014Z,2.50
2023-05-17T01:14:13.653Z,2.40
2023-05-17T01:18:46.971Z,2.40
2023-05-17T01:23:24.473Z,2.40
2023-05-17T01:27:49.623Z,2.40
2023-05-17T01:32:13.727Z,2.40
2023-05-17T01:36:36.394Z,2.30
2023-05-17T01:41:16.775Z,2.30
2023-05-17T01:45:50.793Z,2.20
2023-05-17T01:50:17.975Z,2.20
2023-05-17T01:55:03.676Z,2.20
2023-05-17T01:59:27.374Z,2.20
2023-05-17T02:03:52.785Z,2.30
2023-05-17T02:08:16.063Z,2.30
2023-05-17T02:12:38.306Z,2.30
2023-05-17T02:17:00.395Z,2.40
2023-05-17T02:21:22.457Z,2.40
2023-05-17T02:25:44.596Z,2.40
2023-05-17T02:30:07.817Z,2.40
2023-05-17T02:34:29.619Z,2.40
2023-05-17T02:38:51.499Z,2.50
2023-05-17T02:43:13.585Z,2.50
2023-05-17T02:47:35.722Z,2.40
2023-05-17T02:51:57.714Z,2.40
2023-05-17T02:56:19.720Z,2.30
2023-05-17T03:00:46.569Z,2.20
2023-05-17T03:05:10.516Z,2.20
2023-05-17T03:09:38.074Z,2.10
2023-05-17T03:14:00.793Z,2.10
2023-05-17T03:18:25.169Z,2.10
2023-05-17T03:22:47.653Z,2.10
2023-05-17T03:27:09.764Z,2.30
2023-05-17T03:31:32.240Z,2.40
2023-05-17T03:35:54.571Z,2.50
2023-05-17T03:40:16.609Z,2.60
2023-05-17T03:44:38.991Z,2.80
2023-05-17T03:49:01.224Z,3.00
2023-05-17T03:53:24.557Z,3.20
2023-05-17T03:57:46.446Z,3.60
2023-05-17T04:02:08.555Z,4.20
2023-05-17T04:06:31.058Z,4.50
2023-05-17T04:10:53.714Z,4.70
2023-05-17T04:15:16.047Z,4.80
2023-05-17T04:19:38.789Z,5.00
2023-05-17T04:24:01.052Z,5.20
2023-05-17T04:28:24.781Z,5.40
2023-05-17T04:32:47.691Z,5.70
2023-05-17T04:37:09.724Z,5.80
2023-05-17T04:41:33.416Z,6.00
2023-05-17T04:46:00.999Z,6.20
2023-05-17T04:50:24.594Z,6.40
2023-05-17T04:54:46.757Z,6.50
2023-05-17T04:59:09.620Z,6.60
2023-05-17T05:03:32.064Z,6.60
2023-05-17T05:07:54.656Z,6.70
2023-05-17T05:12:16.893Z,6.70
2023-05-17T05:16:39.394Z,6.70
2023-05-17T05:21:01.950Z,6.90
2023-05-17T05:25:25.574Z,7.00
2023-05-17T05:29:47.864Z,7.10
2023-05-17T05:34:10.736Z,7.30
2023-05-17T05:38:33.131Z,7.60
2023-05-17T05:42:55.838Z,7.80
2023-05-17T05:47:18.058Z,8.10
2023-05-17T05:51:40.194Z,8.20
2023-05-17T05:56:02.255Z,8.30
2023-05-17T06:00:24.675Z,8.30
2023-05-17T06:04:49.699Z,8.20
2023-05-17T06:09:12.584Z,8.20
2023-05-17T06:13:34.893Z,8.20
2023-05-17T06:17:57.250Z,8.20
2023-05-17T06:22:19.444Z,8.50
2023-05-17T06:26:41.422Z,8.60
2023-05-17T06:31:03.461Z,8.80
2023-05-17T06:35:25.417Z,9.10
2023-05-17T06:39:55.515Z,9.20
2023-05-17T06:44:22.173Z,9.30
2023-05-17T06:48:44.620Z,9.70
2023-05-17T06:53:06.694Z,10.00
2023-05-17T06:57:28.700Z,10.50
2023-05-17T07:01:50.953Z,11.10
2023-05-17T07:06:12.876Z,12.30
2023-05-17T07:10:35.278Z,13.70
2023-05-17T07:14:57.615Z,14.10
2023-05-17T07:19:19.585Z,14.90
2023-05-17T07:23:41.659Z,16.80
2023-05-17T07:28:04.039Z,18.80
2023-05-17T07:32:26.197Z,21.20
2023-05-17T07:36:48.277Z,21.20
2023-05-17T07:41:13.452Z,19.50
2023-05-17T07:45:35.679Z,20.10
2023-05-17T07:49:58.348Z,21.30
2023-05-17T07:54:30.184Z,20.30
2023-05-17T07:58:52.267Z,19.30
2023-05-17T08:03:16.563Z,20.10
2023-05-17T08:07:39.695Z,23.00
2023-05-17T08:12:02.166Z,26.00
2023-05-17T08:16:24.164Z,23.80
2023-05-17T08:20:46.806Z,20.40
2023-05-17T08:25:09.797Z,20.40
2023-05-17T08:29:31.717Z,21.20
2023-05-17T08:33:54.004Z,19.80
2023-05-17T08:38:18.058Z,20.00
2023-05-17T08:42:42.797Z,25.20
2023-05-17T08:47:05.800Z,27.00
2023-05-17T08:51:28.851Z,24.00
2023-05-17T08:55:53.418Z,20.50
2023-05-17T09:00:20.467Z,17.80
2023-05-17T09:04:43.803Z,15.80
2023-05-17T09:09:09.580Z,14.10
2023-05-17T09:13:31.916Z,13.30
2023-05-17T09:17:55.614Z,13.20
2023-05-17T09:22:22.303Z,13.40
2023-05-17T09:26:46.465Z,14.00
2023-05-17T09:31:10.397Z,15.00
2023-05-17T09:35:33.503Z,15.00
2023-05-17T09:39:55.857Z,15.00
2023-05-17T09:44:18.063Z,15.20
2023-05-17T09:48:40.651Z,16.60
2023-05-17T09:53:02.999Z,19.20
2023-05-17T09:57:37.241Z,19.70
2023-05-17T10:02:01.597Z,18.80
2023-05-17T10:06:43.639Z,17.60
2023-05-17T10:11:08.970Z,16.30
2023-05-17T10:15:31.631Z,15.80
2023-05-17T10:19:55.217Z,15.90
2023-05-17T10:24:18.079Z,16.30
2023-05-17T10:28:41.379Z,18.80
2023-05-17T10:33:05.054Z,19.30
2023-05-17T10:37:30.472Z,18.20
2023-05-17T10:42:06.746Z,17.90
2023-05-17T10:46:37.156Z,18.60
2023-05-17T10:51:08.037Z,22.50
2023-05-17T10:55:42.614Z,25.10
2023-05-17T11:00:11.194Z,23.40
2023-05-17T11:04:42.350Z,21.10
2023-05-17T11:09:17.759Z,19.00
2023-05-17T11:13:56.704Z,18.90
2023-05-17T11:18:29.482Z,20.10
2023-05-17T11:23:07.100Z,20.70
2023-05-17T11:27:52.564Z,19.90
2023-05-17T11:32:15.197Z,18.60
2023-05-17T11:36:55.398Z,17.80
2023-05-17T11:41:26.853Z,18.30
2023-05-17T11:45:53.535Z,18.50
2023-05-17T11:50:17.964Z,18.20
2023-05-17T11:54:40.917Z,17.70
2023-05-17T11:59:04.596Z,17.40
2023-05-17T12:03:31.732Z,17.30
2023-05-17T12:07:54.218Z,17.70
2023-05-17T12:12:17.189Z,18.10
2023-05-17T12:16:43.219Z,18.30
2023-05-17T12:21:10.165Z,18.60
2023-05-17T12:25:32.820Z,18.00
2023-05-17T12:29:55.306Z,17.30
2023-05-17T12:34:22.444Z,16.90
2023-05-17T12:38:47.464Z,17.10
2023-05-17T12:43:13.453Z,17.50
2023-05-17T12:47:36.640Z,17.40
2023-05-17T12:52:10.680Z,17.50
2023-05-17T12:56:35.769Z,17.80
2023-05-17T13:01:07.747Z,17.70
2023-05-17T13:05:29.994Z,17.20
2023-05-17T13:09:52.535Z,17.30
2023-05-17T13:14:14.937Z,17.30
2023-05-17T13:18:52.141Z,16.90
2023-05-17T13:23:16.258Z,16.80
2023-05-17T13:27:38.798Z,17.10
2023-05-17T13:32:01.438Z,17.10
2023-05-17T13:36:24.327Z,16.80
2023-05-17T13:40:47.573Z,16.70
2023-05-17T13:45:11.897Z,16.90
2023-05-17T13:49:33.956Z,17.10
2023-05-17T13:53:56.719Z,17.00
2023-05-17T13:58:19.038Z,16.70
2023-05-17T14:02:41.347Z,16.30
2023-05-17T14:07:07.334Z,16.30
2023-05-17T14:11:29.612Z,16.50
2023-05-17T14:15:51.678Z,16.40
2023-05-17T14:20:14.603Z,16.10
2023-05-17T14:24:37.037Z,16.00
2023-05-17T14:28:59.318Z,16.10
2023-05-17T14:33:21.651Z,16.00
2023-05-17T14:37:44.718Z,15.60
2023-05-17T14:42:06.936Z,15.30
2023-05-17T14:46:28.937Z,15.10
2023-05-17T14:50:51.674Z,15.50
2023-05-17T14:55:16.626Z,16.00
2023-05-17T14:59:38.733Z,16.40
2023-05-17T15:04:00.721Z,16.30
2023-05-17T15:08:23.442Z,15.70
2023-05-17T15:12:45.960Z,14.80
2023-05-17T15:17:08.312Z,14.30
2023-05-17T15:21:30.834Z,14.10
2023-05-17T15:25:53.358Z,14.10
2023-05-17T15:30:16.279Z,14.40
2023-05-17T15:34:38.230Z,14.70
2023-05-17T15:39:00.454Z,14.80
2023-05-17T15:43:22.761Z,14.90
2023-05-17T15:47:45.904Z,15.00
2023-05-17T15:52:09.094Z,14.80
2023-05-17T15:56:31.778Z,14.20
2023-05-17T16:00:55.144Z,13.80
2023-05-17T16:05:17.135Z,13.40
2023-05-17T16:09:39.919Z,13.20
2023-05-17T16:14:02.181Z,13.30
2023-05-17T16:18:25.302Z,13.40
2023-05-17T16:22:48.478Z,13.30
2023-05-17T16:27:10.438Z,13.20
2023-05-17T16:31:32.862Z,13.20
2023-05-17T16:35:55.078Z,13.20
2023-05-17T16:40:17.178Z,13.30
2023-05-17T16:44:39.506Z,13.30
2023-05-17T16:49:02.342Z,13.30
2023-05-17T16:53:24.215Z,13.30
2023-05-17T16:57:46.804Z,13.30
2023-05-17T17:02:09.700Z,13.20
2023-05-17T17:06:34.044Z,13.30
2023-05-17T17:10:56.364Z,13.40
2023-05-17T17:15:18.462Z,13.40
2023-05-17T17:19:40.314Z,13.50
2023-05-17T17:24:06.754Z,13.40
2023-05-17T17:28:29.014Z,13.30
2023-05-17T17:32:51.271Z,13.30
2023-05-17T17:37:13.698Z,13.20
2023-05-17T17:41:35.716Z,13.10
2023-05-17T17:45:57.623Z,12.90
2023-05-17T17:50:19.942Z,12.70
2023-05-17T17:54:44.028Z,12.40
2023-05-17T17:59:08.137Z,12.30
2023-05-17T18:03:30.580Z,12.20
2023-05-17T18:07:53.159Z,12.10
2023-05-17T18:12:15.369Z,12.00
2023-05-17T18:16:37.996Z,11.90
2023-05-17T18:20:59.940Z,11.80
2023-05-17T18:25:22.298Z,11.70
2023-05-17T18:29:44.587Z,11.60
2023-05-17T18:34:06.556Z,11.50
2023-05-17T18:38:28.612Z,11.50
2023-05-17T18:42:50.679Z,11.30
2023-05-17T18:47:13.097Z,11.10
2023-05-17T18:51:35.498Z,10.80
2023-05-17T18:56:01.645Z,10.50
2023-05-17T19:00:24.797Z,10.30
2023-05-17T19:04:47.115Z,10.10
2023-05-17T19:09:09.051Z,9.90
2023-05-17T19:13:31.257Z,9.70
2023-05-17T19:17:53.250Z,9.50
2023-05-17T19:22:15.451Z,9.40
2023-05-17T19:26:37.657Z,9.30
2023-05-17T19:30:59.614Z,9.20
2023-05-17T19:35:21.863Z,9.10
2023-05-17T19:39:44.378Z,9.00
2023-05-17T19:44:06.804Z,8.90
2023-05-17T19:48:28.698Z,8.80
2023-05-17T19:52:50.947Z,8.70
2023-05-17T19:57:13.373Z,8.60
2023-05-17T20:01:35.725Z,8.60
2023-05-17T20:05:57.732Z,8.50
2023-05-17T20:10:20.259Z,8.40
2023-05-17T20:14:42.625Z,8.40
2023-05-17T20:19:04.963Z,8.30
2023-05-17T20:23:27.348Z,8.20
2023-05-17T20:27:49.310Z,8.20
2023-05-17T20:32:13.038Z,8.20
2023-05-17T20:36:35.479Z,8.10
2023-05-17T20:40:58.539Z,8.10
2023-05-17T20:45:21.833Z,8.10
2023-05-17T20:49:44.714Z,8.00
2023-05-17T20:54:08.940Z,7.90
2023-05-17T20:58:31.251Z,7.80
2023-05-17T21:02:53.286Z,7.70
2023-05-17T21:07:17.626Z,7.60
2023-05-17T21:11:39.525Z,7.50
2023-05-17T21:16:01.779Z,7.50
2023-05-17T21:20:25.846Z,7.40
2023-05-17T21:24:48.868Z,7.30
2023-05-17T21:29:12.314Z,7.20
2023-05-17T21:33:34.581Z,7.10
2023-05-17T21:37:56.553Z,7.10
2023-05-17T21:42:18.777Z,7.00
2023-05-17T21:46:40.988Z,7.00
2023-05-17T21:51:03.242Z,6.90
2023-05-17T21:55:25.492Z,6.80
2023-05-17T21:59:49.388Z,6.80
2023-05-17T22:04:11.432Z,6.70
2023-05-17T22:08:33.671Z,6.70
2023-05-17T22:12:56.113Z,6.60
2023-05-17T22:17:18.111Z,6.60
2023-05-17T22:21:40.132Z,6.60
2023-05-17T22:26:02.271Z,6.50
2023-05-17T22:30:24.543Z,6.50
2023-05-17T22:34:46.591Z,6.50
2023-05-17T22:39:09.816Z,6.50
2023-05-17T22:43:31.900Z,6.40
2023-05-17T22:47:54.392Z,6.40
2023-05-17T22:52:17.648Z,6.40
2023-05-17T22:56:39.737Z,6.40
2023-05-17T23:01:02.087Z,6.40
2023-05-17T23:05:24.509Z,6.30
2023-05-17T23:09:47.384Z,6.30
2023-05-17T23:14:11.483Z,6.20
2023-05-17T23:18:34.234Z,6.20
2023-05-17T23:22:56.277Z,6.10
2023-05-17T23:27:18.718Z,6.00
2023-05-17T23:31:41.593Z,5.90
2023-05-17T23:36:03.857Z,5.90
2023-05-17T23:40:26.157Z,5.90
2023-05-17T23:44:48.954Z,5.90
2023-05-17T23:49:11.233Z,5.80
2023-05-17T23:53:34.353Z,5.80
2023-05-17T23:57:56.431Z,5.70
